Overview Statistics Trail Chart Weather Telemetry Raw packets
 

This is the latest recevied weather packets stored in our database for station/object N9BLE. If no packets are shown the sender has not sent any weather packets the latest 10 day(s).

<< 94 95 96 97 98 99 100 >>
Time Temp. Humidity Pressure Rain* Wind** Luminosity Snow
1777308481 13.33° C 95% 1013 hPa 7.87 mm - 14 W/m² -
1777308177 13.33° C 94% 1013 hPa 10.67 mm - 15 W/m² -
1777307873 13.33° C 93% 1012.8 hPa 8.89 mm - 16 W/m² -
1777307572 13.33° C 92% 1013 hPa 10.67 mm - 11 W/m² -
1777307268 13.89° C 90% 1012.8 hPa 6.1 mm - 12 W/m² -
1777306965 13.89° C 87% 1012.8 hPa 1.27 mm - 13 W/m² -
1777306663 14.44° C 86% 1012.7 hPa 0 mm - 11 W/m² -
1777306360 13.89° C 85% 1012.4 hPa 0 mm - 17 W/m² -
1777306053 13.89° C 87% 1011.3 hPa 0 mm - 22 W/m² -
1777305751 13.89° C 87% 1010.3 hPa 0 mm - 30 W/m² -
1777305446 13.89° C 87% 1010.2 hPa 0 mm - 35 W/m² -
1777305147 13.89° C 87% 1010.7 hPa 0 mm - 42 W/m² -
1777304842 13.89° C 88% 1011 hPa 0 mm - 53 W/m² -
1777304539 13.89° C 88% 1011.1 hPa 0 mm - 63 W/m² -
1777304236 13.89° C 88% 1011.5 hPa 0 mm - 63 W/m² -
1777303933 13.89° C 88% 1011.8 hPa 0 mm - 86 W/m² -
1777303630 13.89° C 88% 1011.7 hPa 0 mm - 96 W/m² -
1777303328 13.89° C 88% 1011.5 hPa 0 mm - 95 W/m² -
1777303024 13.89° C 89% 1011.5 hPa 0 mm - 92 W/m² -
1777302722 13.89° C 89% 1011.7 hPa 0 mm - 92 W/m² -
1777302420 13.33° C 89% 1011.8 hPa 0 mm - 92 W/m² -
1777302118 13.33° C 90% 1011.8 hPa 0 mm - 87 W/m² -
1777301815 13.33° C 90% 1011.9 hPa 0 mm - 83 W/m² -
1777301513 13.33° C 90% 1012.1 hPa 0 mm - 84 W/m² -
1777301209 13.33° C 90% 1012 hPa 0 mm - 83 W/m² -

* Rain latest hour (hover to see other rain measurements)
** Current wind speed in m/s (hover to see current wind gust speed)